Time;durP1;ratioP1;P1;durP2;ratioP2;P2;SDS_P1;SDS_P2;PMS_P1;PMS_P2;Temp;Humidity;BMP_temperature;BMP_pressure;BME280_temperature;BME280_humidity;BME280_pressure;Samples;Min_cycle;Max_cycle;Signal;HPM_P1;HPM_P2
2023/05/04 00:02:09;;;;;;;;;;;7.90;99.90;;;;;;5095845;28;19971;-74
2023/05/04 00:04:34;;;;;;;;;;;7.90;99.90;;;;;;5095004;28;19928;-74
2023/05/04 00:07:00;;;;;;;;;;;7.90;99.90;;;;;;5096396;28;19932;-74
2023/05/04 00:09:25;;;;;;;;;;;7.90;99.90;;;;;;5094341;28;19928;-74
2023/05/04 00:11:51;;;;;;;;;;;7.90;99.90;;;;;;5094366;28;19923;-74
2023/05/04 00:14:16;;;;;;;;;;;7.80;99.90;;;;;;5091106;28;19924;-75
2023/05/04 00:16:42;;;;;;;;;;;7.90;99.90;;;;;;5093776;28;19928;-74
2023/05/04 00:19:08;;;;;;;;;;;7.80;99.90;;;;;;5093744;28;19975;-74
2023/05/04 00:21:34;;;;;;;;;;;7.80;99.90;;;;;;5096830;28;19971;-74
2023/05/04 00:24:01;;;;;;;;;;;7.80;99.90;;;;;;5076266;28;19927;-74
2023/05/04 00:26:26;;;;;;;;;;;7.80;99.90;;;;;;5098416;28;20388;-74
2023/05/04 00:28:52;;;;;;;;;;;7.80;99.90;;;;;;5093910;28;19924;-74
2023/05/04 00:31:17;;;;;;;;;;;7.70;99.90;;;;;;5097470;28;20418;-74
2023/05/04 00:33:43;;;;;;;;;;;7.70;99.90;;;;;;5093685;28;20527;-74
2023/05/04 00:36:09;;;;;;;;;;;7.70;99.90;;;;;;5096332;28;19923;-74
2023/05/04 00:38:51;;;;;;;;;;;7.70;99.90;;;;;;5093471;28;20023;-74
2023/05/04 00:41:17;;;;;;;;;;;7.60;99.90;;;;;;5090300;28;19923;-74
2023/05/04 00:43:43;;;;;;;;;;;7.60;99.90;;;;;;5089805;28;19969;-74
2023/05/04 00:46:09;;;;;;;;;;;7.60;99.90;;;;;;5087653;28;20390;-74
2023/05/04 00:48:35;;;;;;;;;;;7.60;99.90;;;;;;5090742;28;19977;-74
2023/05/04 00:51:01;;;;;;;;;;;7.60;99.90;;;;;;5091664;28;19924;-74
2023/05/04 00:53:26;;;;;;;;;;;7.60;99.90;;;;;;5090237;28;19924;-74
2023/05/04 00:55:52;;;;;;;;;;;7.50;99.90;;;;;;5090750;28;19934;-74
2023/05/04 00:58:17;;;;;;;;;;;7.50;99.90;;;;;;5091121;28;19924;-74
2023/05/04 01:00:43;;;;;;;;;;;7.50;99.90;;;;;;5088992;28;20037;-74
2023/05/04 01:03:08;;;;;;;;;;;7.50;99.90;;;;;;5089163;28;19931;-74
2023/05/04 01:05:37;;;;;;;;;;;7.40;99.90;;;;;;5089211;28;19928;-75
2023/05/04 01:08:05;;;;;;;;;;;7.40;99.90;;;;;;5089107;28;19931;-74
2023/05/04 01:10:38;;;;;;;;;;;7.40;99.90;;;;;;5088579;28;19924;-74
2023/05/04 01:13:06;;;;;;;;;;;7.40;99.90;;;;;;5088415;28;20019;-74
2023/05/04 01:15:32;;;;;;;;;;;7.40;99.90;;;;;;5090716;28;19947;-74
2023/05/04 01:17:58;;;;;;;;;;;7.40;99.90;;;;;;5089121;28;19924;-74
2023/05/04 01:20:24;;;;;;;;;;;7.40;99.90;;;;;;5090978;28;20692;-74
2023/05/04 01:22:49;;;;;;;;;;;7.40;99.90;;;;;;5089161;28;19932;-74
2023/05/04 01:25:15;;;;;;;;;;;7.30;99.90;;;;;;5090386;28;19924;-75
2023/05/04 01:27:59;;;;;;;;;;;7.30;99.90;;;;;;5089362;28;19924;-74
2023/05/04 01:30:30;;;;;;;;;;;7.30;99.90;;;;;;5079273;28;19972;-74
2023/05/04 01:32:56;;;;;;;;;;;7.30;99.90;;;;;;5090954;28;19998;-74
2023/05/04 01:35:22;;;;;;;;;;;7.30;99.90;;;;;;5090397;28;19976;-74
2023/05/04 01:37:48;;;;;;;;;;;7.30;99.90;;;;;;5089876;28;20282;-74
2023/05/04 01:40:13;;;;;;;;;;;7.30;99.90;;;;;;5089021;28;19924;-74
2023/05/04 01:42:40;;;;;;;;;;;7.30;99.90;;;;;;5089336;28;20410;-74
2023/05/04 01:45:06;;;;;;;;;;;7.30;99.90;;;;;;5088122;28;19956;-74
2023/05/04 01:47:32;;;;;;;;;;;7.30;99.90;;;;;;5091063;28;19936;-74
2023/05/04 01:49:57;;;;;;;;;;;7.30;99.90;;;;;;5088986;28;20388;-74
2023/05/04 01:52:23;;;;;;;;;;;7.30;99.90;;;;;;5088034;28;19924;-74
2023/05/04 01:54:48;;;;;;;;;;;7.20;99.90;;;;;;5087671;28;19935;-74
2023/05/04 01:57:14;;;;;;;;;;;7.30;99.90;;;;;;5089324;28;20313;-74
2023/05/04 01:59:40;;;;;;;;;;;7.20;99.90;;;;;;5089596;28;20271;-74
2023/05/04 02:02:05;;;;;;;;;;;7.20;99.90;;;;;;5090657;28;19931;-75
2023/05/04 02:04:31;;;;;;;;;;;7.20;99.90;;;;;;5090963;28;19928;-74
2023/05/04 02:06:56;;;;;;;;;;;7.20;99.90;;;;;;5091360;28;19928;-74
2023/05/04 02:09:22;;;;;;;;;;;7.20;99.90;;;;;;5089656;28;19955;-74
2023/05/04 02:11:47;;;;;;;;;;;7.20;99.90;;;;;;5089139;28;19928;-74
2023/05/04 02:14:13;;;;;;;;;;;7.20;99.90;;;;;;5089509;28;19928;-74
2023/05/04 02:16:38;;;;;;;;;;;7.20;99.90;;;;;;5091566;28;20346;-74
2023/05/04 02:19:04;;;;;;;;;;;7.20;99.90;;;;;;5087594;28;19935;-75
2023/05/04 02:21:30;;;;;;;;;;;7.20;99.90;;;;;;5091499;28;19939;-74
2023/05/04 02:23:55;;;;;;;;;;;7.20;99.90;;;;;;5089655;28;19931;-74
2023/05/04 02:26:21;;;;;;;;;;;7.20;99.90;;;;;;5090263;28;19951;-74
2023/05/04 02:28:46;;;;;;;;;;;7.20;99.90;;;;;;5087670;28;19931;-74
2023/05/04 02:31:12;;;;;;;;;;;7.20;99.90;;;;;;5092560;28;20394;-74
2023/05/04 02:33:37;;;;;;;;;;;7.20;99.90;;;;;;5089897;28;19924;-74
2023/05/04 02:36:03;;;;;;;;;;;7.10;99.90;;;;;;5091098;28;19924;-74
2023/05/04 02:38:28;;;;;;;;;;;7.10;99.90;;;;;;5089215;28;19991;-74
2023/05/04 02:40:54;;;;;;;;;;;7.10;99.90;;;;;;5090198;28;19924;-74
2023/05/04 02:43:19;;;;;;;;;;;7.20;99.90;;;;;;5089085;28;19932;-74
2023/05/04 02:45:45;;;;;;;;;;;7.20;99.90;;;;;;5089842;28;20666;-75
2023/05/04 02:48:11;;;;;;;;;;;7.20;99.90;;;;;;5089236;28;20301;-74
2023/05/04 02:50:36;;;;;;;;;;;7.20;99.90;;;;;;5091169;28;20019;-74
2023/05/04 02:53:02;;;;;;;;;;;7.20;99.90;;;;;;5088271;28;19925;-74
2023/05/04 02:55:27;;;;;;;;;;;7.20;99.90;;;;;;5072724;28;19931;-74
2023/05/04 02:57:53;;;;;;;;;;;7.20;99.90;;;;;;5088864;28;19935;-74
2023/05/04 03:00:18;;;;;;;;;;;7.20;99.90;;;;;;5090674;28;20600;-74
2023/05/04 03:02:44;;;;;;;;;;;7.20;99.90;;;;;;5089767;28;19959;-74
2023/05/04 03:05:09;;;;;;;;;;;7.20;99.90;;;;;;5089369;28;19968;-75
2023/05/04 03:07:35;;;;;;;;;;;7.20;99.90;;;;;;5089469;28;19971;-74
2023/05/04 03:10:01;;;;;;;;;;;7.20;99.90;;;;;;5091477;28;19924;-74
2023/05/04 03:12:26;;;;;;;;;;;7.20;99.90;;;;;;5089649;28;19924;-75
2023/05/04 03:14:52;;;;;;;;;;;7.20;99.90;;;;;;5094281;28;19993;-74
2023/05/04 03:17:17;;;;;;;;;;;7.20;99.90;;;;;;5094447;28;20006;-74
2023/05/04 03:19:43;;;;;;;;;;;7.20;99.90;;;;;;5094452;28;19928;-74
2023/05/04 03:22:08;;;;;;;;;;;7.20;99.90;;;;;;5093169;28;20264;-74
2023/05/04 03:24:35;;;;;;;;;;;7.20;99.90;;;;;;5093700;28;20298;-74
2023/05/04 03:27:01;;;;;;;;;;;7.20;99.90;;;;;;5093464;28;20272;-74
2023/05/04 03:29:27;;;;;;;;;;;7.20;99.90;;;;;;5077357;28;19981;-74
2023/05/04 03:31:52;;;;;;;;;;;7.20;99.90;;;;;;5096574;28;20007;-74
2023/05/04 03:34:20;;;;;;;;;;;7.20;99.90;;;;;;5096083;28;20374;-75
2023/05/04 03:36:47;;;;;;;;;;;7.20;99.90;;;;;;5096295;28;19977;-74
2023/05/04 03:39:12;;;;;;;;;;;7.20;99.90;;;;;;5092951;28;19924;-74
2023/05/04 03:41:38;;;;;;;;;;;7.20;99.90;;;;;;5077777;28;19931;-74
2023/05/04 03:44:03;;;;;;;;;;;7.20;99.90;;;;;;5096933;28;19924;-74
2023/05/04 03:46:29;;;;;;;;;;;7.10;99.90;;;;;;5094924;28;19932;-74
2023/05/04 03:48:56;;;;;;;;;;;7.20;99.90;;;;;;5097279;28;19924;-74
2023/05/04 03:51:21;;;;;;;;;;;7.20;99.90;;;;;;5095918;28;19924;-74
2023/05/04 03:53:47;;;;;;;;;;;7.20;99.90;;;;;;5092865;28;20371;-74
2023/05/04 03:56:12;;;;;;;;;;;7.20;99.90;;;;;;5075039;28;19958;-74
2023/05/04 03:58:38;;;;;;;;;;;7.20;99.90;;;;;;5091670;28;19977;-74
2023/05/04 04:01:03;;;;;;;;;;;7.20;99.90;;;;;;5074016;28;19924;-74
2023/05/04 04:03:29;;;;;;;;;;;7.10;99.90;;;;;;5095250;28;19974;-74
2023/05/04 04:05:55;;;;;;;;;;;7.20;99.90;;;;;;5093531;28;19924;-74
2023/05/04 04:08:20;;;;;;;;;;;7.20;99.90;;;;;;5095100;28;20019;-75
2023/05/04 04:10:46;;;;;;;;;;;7.20;99.90;;;;;;5094150;28;20370;-74
2023/05/04 04:13:11;;;;;;;;;;;7.20;99.90;;;;;;5076656;28;19935;-74
2023/05/04 04:15:37;;;;;;;;;;;7.20;99.90;;;;;;5091924;28;19924;-74
2023/05/04 04:18:02;;;;;;;;;;;7.20;99.90;;;;;;5094413;28;19928;-74
2023/05/04 04:20:28;;;;;;;;;;;7.20;99.90;;;;;;5093599;28;20026;-74
2023/05/04 04:22:54;;;;;;;;;;;7.20;99.90;;;;;;5094703;28;20301;-74
2023/05/04 04:25:20;;;;;;;;;;;7.20;99.90;;;;;;5093679;28;20022;-74
2023/05/04 04:27:45;;;;;;;;;;;7.30;99.90;;;;;;5094780;28;19939;-74
2023/05/04 04:30:11;;;;;;;;;;;7.20;99.90;;;;;;5095417;28;19924;-74
2023/05/04 04:32:36;;;;;;;;;;;7.20;99.90;;;;;;5093928;28;19928;-74
2023/05/04 04:35:03;;;;;;;;;;;7.20;99.90;;;;;;5094873;28;20363;-74
2023/05/04 04:37:28;;;;;;;;;;;7.20;99.90;;;;;;5091533;28;20381;-74
2023/05/04 04:39:54;;;;;;;;;;;7.30;99.90;;;;;;5093107;28;19931;-74
2023/05/04 04:42:20;;;;;;;;;;;7.30;99.90;;;;;;5093382;28;19928;-74
2023/05/04 04:44:46;;;;;;;;;;;7.30;99.90;;;;;;5093985;28;19931;-74
2023/05/04 04:47:11;;;;;;;;;;;7.30;99.90;;;;;;5093067;28;19924;-74
2023/05/04 04:49:37;;;;;;;;;;;7.30;99.90;;;;;;5093704;28;19924;-74
2023/05/04 04:52:03;;;;;;;;;;;7.30;99.90;;;;;;5093931;28;20006;-74
2023/05/04 04:54:30;;;;;;;;;;;7.30;99.90;;;;;;5091273;28;19985;-74
2023/05/04 04:56:56;;;;;;;;;;;7.30;99.90;;;;;;5092255;28;19924;-74
2023/05/04 04:59:23;;;;;;;;;;;7.30;99.90;;;;;;5091599;28;19936;-73
2023/05/04 05:01:49;;;;;;;;;;;7.30;99.90;;;;;;5090815;28;19943;-74
2023/05/04 05:04:14;;;;;;;;;;;7.40;99.90;;;;;;5091444;28;19924;-74
2023/05/04 05:06:40;;;;;;;;;;;7.40;99.90;;;;;;5090612;28;20014;-74
2023/05/04 05:09:06;;;;;;;;;;;7.40;99.90;;;;;;5089958;28;19924;-74
2023/05/04 05:11:31;;;;;;;;;;;7.40;99.90;;;;;;5092604;28;19932;-74
2023/05/04 05:13:58;;;;;;;;;;;7.40;99.90;;;;;;5093533;28;20344;-74
2023/05/04 05:16:24;;;;;;;;;;;7.50;99.90;;;;;;5091444;28;19985;-74
2023/05/04 05:18:49;;;;;;;;;;;7.50;99.90;;;;;;5090922;28;19931;-73
2023/05/04 05:21:15;;;;;;;;;;;7.50;99.90;;;;;;5090829;28;20332;-69
2023/05/04 05:23:40;;;;;;;;;;;7.50;99.90;;;;;;5091246;28;19931;-72
2023/05/04 05:26:06;;;;;;;;;;;7.60;99.90;;;;;;5092429;28;20288;-71
2023/05/04 05:28:32;;;;;;;;;;;7.60;99.90;;;;;;5086763;28;19932;-72
2023/05/04 05:30:57;;;;;;;;;;;7.60;99.90;;;;;;5089196;28;19924;-73
2023/05/04 05:33:23;;;;;;;;;;;7.60;99.90;;;;;;5089882;28;20076;-73
2023/05/04 05:35:48;;;;;;;;;;;7.60;99.90;;;;;;5073972;28;19928;-73
2023/05/04 05:38:16;;;;;;;;;;;7.70;99.90;;;;;;5086946;28;19924;-73
2023/05/04 05:40:42;;;;;;;;;;;7.70;99.90;;;;;;5092066;28;19978;-73
2023/05/04 05:43:07;;;;;;;;;;;7.70;99.90;;;;;;5073221;28;19958;-73
2023/05/04 05:45:33;;;;;;;;;;;7.80;99.90;;;;;;5088485;28;19990;-73
2023/05/04 05:47:58;;;;;;;;;;;7.80;99.90;;;;;;5090187;28;19988;-73
2023/05/04 05:50:24;;;;;;;;;;;7.80;99.90;;;;;;5090205;28;20402;-73
2023/05/04 05:52:49;;;;;;;;;;;7.90;99.90;;;;;;5088776;28;20297;-73
2023/05/04 05:55:15;;;;;;;;;;;7.90;99.90;;;;;;5090664;28;19935;-74
2023/05/04 05:57:40;;;;;;;;;;;7.90;99.90;;;;;;5091692;28;20304;-73
2023/05/04 06:00:06;;;;;;;;;;;7.90;99.90;;;;;;5091447;28;20349;-73
2023/05/04 06:02:32;;;;;;;;;;;8.00;99.90;;;;;;5091733;28;20420;-74
2023/05/04 06:04:57;;;;;;;;;;;8.00;99.90;;;;;;5090529;28;20340;-74
2023/05/04 06:07:23;;;;;;;;;;;8.10;99.90;;;;;;5089475;28;20347;-74
2023/05/04 06:09:48;;;;;;;;;;;8.10;99.90;;;;;;5091598;28;19928;-74
2023/05/04 06:12:15;;;;;;;;;;;8.10;99.90;;;;;;5090747;28;19924;-73
2023/05/04 06:14:41;;;;;;;;;;;8.20;99.90;;;;;;5088631;28;19928;-74
2023/05/04 06:17:07;;;;;;;;;;;8.20;99.90;;;;;;5088302;28;19931;-74
2023/05/04 06:19:34;;;;;;;;;;;8.20;99.90;;;;;;5090964;28;20328;-74
2023/05/04 06:22:00;;;;;;;;;;;8.30;99.90;;;;;;5093906;28;20302;-74
2023/05/04 06:24:25;;;;;;;;;;;8.40;99.90;;;;;;5089521;28;19924;-74
2023/05/04 06:26:51;;;;;;;;;;;8.40;99.90;;;;;;5087481;28;19955;-73
2023/05/04 06:29:17;;;;;;;;;;;8.50;99.90;;;;;;5091057;28;19924;-74
2023/05/04 06:31:43;;;;;;;;;;;8.50;99.90;;;;;;5091957;28;19971;-74
2023/05/04 06:34:09;;;;;;;;;;;8.60;99.90;;;;;;5089769;28;19928;-74
2023/05/04 06:36:35;;;;;;;;;;;8.60;99.90;;;;;;5089592;28;19938;-74
2023/05/04 06:39:00;;;;;;;;;;;8.60;99.90;;;;;;5088034;28;19958;-74
2023/05/04 06:41:26;;;;;;;;;;;8.70;99.90;;;;;;5098549;28;19967;-74
2023/05/04 06:43:51;;;;;;;;;;;8.70;99.90;;;;;;5071540;28;19924;-74
2023/05/04 06:46:17;;;;;;;;;;;8.80;99.90;;;;;;5093181;28;20583;-74
2023/05/04 06:48:42;;;;;;;;;;;8.90;99.90;;;;;;5087472;28;19976;-74
2023/05/04 06:51:08;;;;;;;;;;;9.00;99.90;;;;;;5097960;28;20391;-74
2023/05/04 06:53:33;;;;;;;;;;;9.10;99.90;;;;;;5089516;28;19951;-74
2023/05/04 06:55:59;;;;;;;;;;;9.10;99.90;;;;;;5088856;28;19924;-74
2023/05/04 06:58:24;;;;;;;;;;;9.20;99.90;;;;;;5088345;28;19924;-74
2023/05/04 07:00:50;;;;;;;;;;;9.20;99.90;;;;;;5090494;28;19924;-74
2023/05/04 07:03:16;;;;;;;;;;;9.30;99.90;;;;;;5089384;28;20392;-74
2023/05/04 07:05:43;;;;;;;;;;;9.30;99.90;;;;;;5088662;28;19924;-74
2023/05/04 07:08:09;;;;;;;;;;;9.40;99.90;;;;;;5072073;28;19932;-74
2023/05/04 07:10:34;;;;;;;;;;;9.50;99.90;;;;;;5086320;28;20770;-74
2023/05/04 07:13:00;;;;;;;;;;;9.50;99.90;;;;;;5090681;28;19925;-74
2023/05/04 07:15:26;;;;;;;;;;;9.60;99.90;;;;;;5074219;28;19970;-74
2023/05/04 07:17:51;;;;;;;;;;;9.70;99.90;;;;;;5090801;28;19998;-74
2023/05/04 07:20:19;;;;;;;;;;;9.70;99.90;;;;;;5090724;28;19931;-74
2023/05/04 07:22:44;;;;;;;;;;;9.90;99.90;;;;;;5089887;28;19924;-74
2023/05/04 07:25:10;;;;;;;;;;;9.90;99.90;;;;;;5088772;28;20424;-74
2023/05/04 07:27:35;;;;;;;;;;;10.00;99.90;;;;;;5089931;28;20495;-74
2023/05/04 07:30:01;;;;;;;;;;;10.00;99.90;;;;;;5090183;28;19924;-74
2023/05/04 07:32:27;;;;;;;;;;;10.10;99.90;;;;;;5089890;28;19940;-74
2023/05/04 07:34:52;;;;;;;;;;;10.20;99.90;;;;;;5093483;28;20049;-74
2023/05/04 07:37:18;;;;;;;;;;;10.20;99.90;;;;;;5090114;28;20393;-74
2023/05/04 07:39:44;;;;;;;;;;;10.20;99.90;;;;;;5093012;28;19924;-74
2023/05/04 07:42:12;;;;;;;;;;;10.30;99.90;;;;;;5090842;28;19972;-74
2023/05/04 07:44:38;;;;;;;;;;;10.40;99.90;;;;;;5093105;28;20393;-74
2023/05/04 07:47:04;;;;;;;;;;;10.50;99.90;;;;;;5090348;28;19924;-74
2023/05/04 07:49:29;;;;;;;;;;;10.50;99.90;;;;;;5093730;28;19927;-74
2023/05/04 07:51:55;;;;;;;;;;;10.60;99.90;;;;;;5090496;28;19959;-74
2023/05/04 07:54:21;;;;;;;;;;;10.60;99.90;;;;;;5088056;28;20317;-74
2023/05/04 07:56:46;;;;;;;;;;;10.70;99.90;;;;;;5089646;28;19924;-74
2023/05/04 07:59:12;;;;;;;;;;;10.70;99.90;;;;;;5087123;28;20312;-74
2023/05/04 08:01:38;;;;;;;;;;;10.70;99.90;;;;;;5073539;28;19974;-74
2023/05/04 08:04:03;;;;;;;;;;;10.80;99.90;;;;;;5090522;28;20710;-74
2023/05/04 08:06:29;;;;;;;;;;;10.90;99.90;;;;;;5090396;28;19934;-74
2023/05/04 08:08:55;;;;;;;;;;;10.90;99.90;;;;;;5089810;28;20498;-74
2023/05/04 08:11:20;;;;;;;;;;;11.10;99.90;;;;;;5090715;28;19955;-74
2023/05/04 08:13:46;;;;;;;;;;;11.10;99.90;;;;;;5073414;28;19924;-74
2023/05/04 08:16:12;;;;;;;;;;;11.20;99.90;;;;;;5092210;28;19931;-74
2023/05/04 08:18:37;;;;;;;;;;;11.30;99.90;;;;;;5094705;28;19923;-74
2023/05/04 08:21:03;;;;;;;;;;;11.40;99.90;;;;;;5091809;28;19973;-74
2023/05/04 08:23:29;;;;;;;;;;;11.50;99.90;;;;;;5092289;28;19970;-74
2023/05/04 08:25:55;;;;;;;;;;;11.60;99.90;;;;;;5091361;28;20377;-74
2023/05/04 08:28:21;;;;;;;;;;;11.70;99.90;;;;;;5091949;28;19963;-74
2023/05/04 08:30:46;;;;;;;;;;;11.80;99.90;;;;;;5090992;28;19959;-74
2023/05/04 08:33:12;;;;;;;;;;;11.90;99.90;;;;;;5091242;28;19932;-74
2023/05/04 08:35:37;;;;;;;;;;;12.00;99.90;;;;;;5091120;28;20412;-74
2023/05/04 08:38:03;;;;;;;;;;;12.00;99.90;;;;;;5090982;28;19928;-74
2023/05/04 08:40:28;;;;;;;;;;;12.10;99.90;;;;;;5090665;28;20259;-74
2023/05/04 08:42:54;;;;;;;;;;;12.20;99.90;;;;;;5091302;28;20011;-74
2023/05/04 08:45:20;;;;;;;;;;;12.30;99.90;;;;;;5091170;28;19928;-74
2023/05/04 08:47:46;;;;;;;;;;;12.40;99.90;;;;;;5091440;28;19924;-74
2023/05/04 08:50:12;;;;;;;;;;;12.50;99.90;;;;;;5092201;28;19970;-74
2023/05/04 08:52:42;;;;;;;;;;;12.60;99.90;;;;;;5090978;28;20298;-74
2023/05/04 08:55:10;;;;;;;;;;;12.70;99.90;;;;;;5091978;28;19931;-74
2023/05/04 08:57:36;;;;;;;;;;;12.80;99.90;;;;;;5089513;28;19924;-74
2023/05/04 09:00:01;;;;;;;;;;;12.90;99.90;;;;;;5090447;28;19924;-74
2023/05/04 09:02:28;;;;;;;;;;;13.00;99.90;;;;;;5092231;28;20375;-74
2023/05/04 09:04:54;;;;;;;;;;;13.10;99.90;;;;;;5090731;28;20411;-74
2023/05/04 09:07:20;;;;;;;;;;;13.20;99.90;;;;;;5090569;28;19978;-74
2023/05/04 09:09:46;;;;;;;;;;;13.30;99.90;;;;;;5073861;28;19924;-74
2023/05/04 09:12:12;;;;;;;;;;;13.30;99.90;;;;;;5090255;28;19931;-74
2023/05/04 09:14:38;;;;;;;;;;;13.40;99.90;;;;;;5089477;28;19945;-74
2023/05/04 09:17:11;;;;;;;;;;;13.50;99.90;;;;;;5089492;28;20041;-75
2023/05/04 09:19:37;;;;;;;;;;;13.60;99.90;;;;;;5088987;28;19931;-74
2023/05/04 09:22:12;;;;;;;;;;;13.70;99.90;;;;;;5089136;28;19970;-74
2023/05/04 09:24:38;;;;;;;;;;;13.80;99.90;;;;;;5089901;28;19924;-74
2023/05/04 09:27:10;;;;;;;;;;;14.00;99.90;;;;;;5089359;28;19946;-74
2023/05/04 09:29:39;;;;;;;;;;;14.20;99.90;;;;;;5088599;28;19932;-74
2023/05/04 09:32:08;;;;;;;;;;;14.40;99.90;;;;;;5089625;28;20431;-74
2023/05/04 09:34:36;;;;;;;;;;;14.60;99.90;;;;;;5089333;28;20386;-75
2023/05/04 09:37:02;;;;;;;;;;;14.80;99.90;;;;;;5080399;28;19930;-74
2023/05/04 09:39:28;;;;;;;;;;;15.00;99.90;;;;;;5089853;28;19928;-74
2023/05/04 09:41:54;;;;;;;;;;;15.10;99.90;;;;;;5089523;28;19928;-74
2023/05/04 09:44:21;;;;;;;;;;;15.20;99.90;;;;;;5089439;28;20406;-74
2023/05/04 09:46:54;;;;;;;;;;;15.20;99.90;;;;;;5088801;28;19928;-74
2023/05/04 09:49:29;;;;;;;;;;;15.30;99.90;;;;;;5089379;28;19928;-74
2023/05/04 09:51:57;;;;;;;;;;;15.40;99.90;;;;;;5091584;28;20543;-75
2023/05/04 09:54:22;;;;;;;;;;;15.70;99.90;;;;;;5073073;28;20406;-74
2023/05/04 09:56:51;;;;;;;;;;;15.80;99.90;;;;;;5091935;28;19924;-74
2023/05/04 09:59:16;;;;;;;;;;;15.90;99.90;;;;;;5074291;28;19924;-74
2023/05/04 10:01:42;;;;;;;;;;;16.00;99.90;;;;;;5090504;28;19932;-74
2023/05/04 10:04:08;;;;;;;;;;;16.30;99.90;;;;;;5072276;28;20001;-74
2023/05/04 10:06:33;;;;;;;;;;;16.60;99.90;;;;;;5089557;28;19931;-74
2023/05/04 10:09:02;;;;;;;;;;;17.00;99.90;;;;;;5090335;28;20018;-74
2023/05/04 10:11:29;;;;;;;;;;;17.30;99.90;;;;;;5089241;28;19984;-74
2023/05/04 10:13:57;;;;;;;;;;;17.60;99.20;;;;;;5089280;28;19946;-74
2023/05/04 10:16:39;;;;;;;;;;;17.70;99.50;;;;;;5090822;28;19981;-74
2023/05/04 10:19:18;;;;;;;;;;;17.80;98.90;;;;;;5090529;28;20306;-74
2023/05/04 10:21:43;;;;;;;;;;;17.90;98.00;;;;;;5089181;28;19952;-74
2023/05/04 10:24:21;;;;;;;;;;;17.90;98.50;;;;;;5088238;28;20017;-74
2023/05/04 10:26:49;;;;;;;;;;;18.00;97.50;;;;;;5088946;28;19995;-74
2023/05/04 10:29:22;;;;;;;;;;;17.90;95.80;;;;;;5089893;28;20057;-75
2023/05/04 10:31:48;;;;;;;;;;;17.80;95.30;;;;;;5086412;28;20643;-75
2023/05/04 10:34:24;;;;;;;;;;;17.80;96.90;;;;;;5088846;28;20015;-74
2023/05/04 10:36:49;;;;;;;;;;;17.80;96.20;;;;;;5088367;28;19935;-74
2023/05/04 10:39:22;;;;;;;;;;;17.90;96.30;;;;;;5088421;28;19924;-74
2023/05/04 10:42:04;;;;;;;;;;;18.00;95.20;;;;;;5092067;28;19931;-74
2023/05/04 10:44:51;;;;;;;;;;;17.90;96.20;;;;;;5087454;28;20360;-74
2023/05/04 10:47:26;;;;;;;;;;;18.10;96.60;;;;;;5090875;28;19924;-75
2023/05/04 10:49:59;;;;;;;;;;;18.50;96.70;;;;;;5092966;28;20318;-74
2023/05/04 10:52:24;;;;;;;;;;;19.00;96.70;;;;;;5092479;28;20386;-75
2023/05/04 10:54:57;;;;;;;;;;;19.40;96.70;;;;;;5091112;28;20449;-75
2023/05/04 10:57:22;;;;;;;;;;;19.70;94.60;;;;;;5091364;28;19932;-75
2023/05/04 10:59:58;;;;;;;;;;;19.60;92.60;;;;;;5071448;28;19924;-74
2023/05/04 11:02:24;;;;;;;;;;;19.20;91.50;;;;;;5087623;28;19924;-75
2023/05/04 11:05:00;;;;;;;;;;;19.10;91.20;;;;;;5087187;28;20449;-74
2023/05/04 11:07:33;;;;;;;;;;;19.10;93.40;;;;;;5085321;28;19963;-74
2023/05/04 11:09:59;;;;;;;;;;;19.30;93.70;;;;;;5091849;28;19928;-74
2023/05/04 11:12:25;;;;;;;;;;;19.40;92.60;;;;;;5091207;28;19971;-75
2023/05/04 11:15:01;;;;;;;;;;;19.50;91.60;;;;;;5091452;28;19963;-75
2023/05/04 11:17:27;;;;;;;;;;;19.60;92.50;;;;;;5090600;28;19950;-74
2023/05/04 11:19:52;;;;;;;;;;;19.70;91.40;;;;;;5090415;28;20414;-75
2023/05/04 11:22:18;;;;;;;;;;;19.80;92.00;;;;;;5091629;28;20048;-75
2023/05/04 11:24:45;;;;;;;;;;;20.00;91.40;;;;;;5075313;28;19924;-75
2023/05/04 11:27:21;;;;;;;;;;;20.00;89.90;;;;;;5091785;28;20408;-74
2023/05/04 11:29:59;;;;;;;;;;;20.00;90.70;;;;;;5090658;28;20004;-74
2023/05/04 11:32:52;;;;;;;;;;;19.80;89.30;;;;;;5091274;28;19928;-74
2023/05/04 11:35:21;;;;;;;;;;;19.60;90.00;;;;;;5074890;28;20397;-74
2023/05/04 11:37:48;;;;;;;;;;;19.60;90.60;;;;;;5091013;28;20015;-74
2023/05/04 11:40:18;;;;;;;;;;;19.40;89.70;;;;;;5091638;28;19931;-74
2023/05/04 11:42:44;;;;;;;;;;;19.30;90.40;;;;;;5098162;28;20308;-74
2023/05/04 11:45:20;;;;;;;;;;;19.30;90.00;;;;;;5098999;28;19924;-74
2023/05/04 11:47:46;;;;;;;;;;;19.50;91.50;;;;;;5104700;28;20599;-74
2023/05/04 11:50:13;;;;;;;;;;;19.90;90.30;;;;;;5099642;28;19924;-74
2023/05/04 11:52:40;;;;;;;;;;;20.20;90.00;;;;;;5099241;28;20007;-74
2023/05/04 11:55:09;;;;;;;;;;;20.40;90.80;;;;;;5092881;28;20400;-74
2023/05/04 11:57:36;;;;;;;;;;;20.60;88.30;;;;;;5092784;28;19924;-74
2023/05/04 12:00:05;;;;;;;;;;;20.60;87.80;;;;;;5092627;28;19932;-74
2023/05/04 12:02:31;;;;;;;;;;;20.70;86.90;;;;;;5092179;28;20420;-74
2023/05/04 12:04:57;;;;;;;;;;;20.80;86.60;;;;;;5094219;28;19936;-74
2023/05/04 12:07:23;;;;;;;;;;;20.90;86.50;;;;;;5093399;28;19935;-74
2023/05/04 12:09:49;;;;;;;;;;;21.20;84.80;;;;;;5093705;28;19924;-74
2023/05/04 12:12:15;;;;;;;;;;;21.20;85.40;;;;;;5093319;28;19924;-74
2023/05/04 12:14:51;;;;;;;;;;;21.50;86.60;;;;;;5093654;28;19928;-74
2023/05/04 12:17:19;;;;;;;;;;;21.50;83.10;;;;;;5093131;28;19924;-74
2023/05/04 12:19:52;;;;;;;;;;;21.60;82.30;;;;;;5092797;28;19977;-74
2023/05/04 12:22:28;;;;;;;6.68;3.08;;;21.70;84.00;;;;;;5091779;28;20398;-75
2023/05/04 12:24:59;;;;;;;6.85;3.40;;;21.90;81.60;;;;;;5090674;28;20432;-75
2023/05/04 12:27:26;;;;;;;8.13;3.45;;;22.00;80.40;;;;;;5090339;28;20482;-74
2023/05/04 12:29:51;;;;;;;;;;;22.00;77.80;;;;;;5094744;28;20122;-75
2023/05/04 12:32:17;;;;;;;;;;;22.10;77.40;;;;;;5094117;28;20011;-74
2023/05/04 12:34:43;;;;;;;;;;;22.20;75.90;;;;;;5094829;28;19923;-74
2023/05/04 12:37:09;;;;;;;;;;;22.20;76.50;;;;;;5093995;28;19920;-74
2023/05/04 12:39:35;;;;;;;;;;;22.30;75.40;;;;;;5077818;28;19920;-75
2023/05/04 12:42:00;;;;;;;;;;;22.30;73.20;;;;;;5092538;28;19920;-75
2023/05/04 12:44:26;;;;;;;;;;;22.30;72.60;;;;;;5097639;28;19924;-75
2023/05/04 12:46:53;;;;;;;;;;;22.40;72.60;;;;;;5092733;28;19927;-74
2023/05/04 12:49:18;;;;;;;;;;;22.50;70.70;;;;;;5097749;28;19919;-75
2023/05/04 12:51:44;;;;;;;;;;;22.50;71.90;;;;;;5090821;28;20294;-74
2023/05/04 12:54:10;;;;;;;7.25;3.08;;;22.60;72.50;;;;;;5090001;28;19920;-75
2023/05/04 12:56:36;;;;;;;6.88;3.40;;;22.60;67.40;;;;;;5090729;28;20930;-75
2023/05/04 12:59:01;;;;;;;7.03;3.58;;;22.50;68.80;;;;;;5073310;28;20454;-74
2023/05/04 13:01:27;;;;;;;7.13;3.33;;;22.50;66.90;;;;;;5091578;28;20043;-75
2023/05/04 13:03:53;;;;;;;5.82;3.00;;;22.50;69.30;;;;;;5089594;28;20040;-74
2023/05/04 13:06:18;;;;;;;;;;;22.60;67.10;;;;;;5090559;28;20043;-75
2023/05/04 13:08:45;;;;;;;9.80;2.78;;;22.70;63.80;;;;;;5089824;28;19981;-75
2023/05/04 13:11:11;;;;;;;11.15;3.67;;;22.70;64.50;;;;;;5090647;28;20040;-74
2023/05/04 13:13:37;;;;;;;;;;;22.80;67.10;;;;;;5090347;28;20402;-74
2023/05/04 13:16:04;;;;;;;;;;;23.00;66.40;;;;;;5089866;28;19959;-75
2023/05/04 13:18:30;;;;;;;;;;;23.20;65.60;;;;;;5091096;28;20305;-74
2023/05/04 13:20:56;;;;;;;;;;;23.30;65.10;;;;;;5089198;28;19920;-74
2023/05/04 13:23:22;;;;;;;6.80;2.83;;;23.40;64.50;;;;;;5090046;28;20279;-75
2023/05/04 13:25:51;;;;;;;6.43;2.88;;;23.50;64.00;;;;;;5090995;28;20113;-75
2023/05/04 13:28:17;;;;;;;9.25;2.78;;;23.80;66.80;;;;;;5089941;28;20105;-75
2023/05/04 13:30:43;;;;;;;5.53;2.95;;;24.00;64.50;;;;;;5089318;28;20048;-75
2023/05/04 13:33:08;;;;;;;6.25;2.50;;;24.10;62.80;;;;;;5079249;28;20467;-75
2023/05/04 13:35:34;;;;;;;5.55;2.38;;;24.10;61.20;;;;;;5092711;28;20044;-74
2023/05/04 13:37:59;;;;;;;;;;;24.30;62.00;;;;;;5098049;28;20071;-75
2023/05/04 13:40:25;;;;;;;;;;;24.40;62.40;;;;;;5089872;28;19920;-75
2023/05/04 13:42:51;;;;;;;7.25;2.30;;;24.50;58.80;;;;;;5097638;28;20309;-74
2023/05/04 13:45:18;;;;;;;8.30;2.72;;;24.40;60.50;;;;;;5090104;28;20497;-75
2023/05/04 13:47:44;;;;;;;;;;;24.30;59.60;;;;;;5097945;28;20126;-75
2023/05/04 13:50:10;;;;;;;6.72;2.47;;;24.40;59.50;;;;;;5092519;28;20633;-74
2023/05/04 13:52:36;;;;;;;4.63;2.10;;;24.60;57.70;;;;;;5095654;28;20093;-75
2023/05/04 13:55:02;;;;;;;6.40;2.20;;;24.70;57.70;;;;;;5071727;28;20056;-75
2023/05/04 13:57:27;;;;;;;5.30;2.20;;;24.70;55.90;;;;;;5089794;28;20139;-75
2023/05/04 13:59:54;;;;;;;6.33;2.40;;;24.50;56.20;;;;;;5089150;28;20402;-75
2023/05/04 14:02:19;;;;;;;8.27;2.60;;;24.10;58.40;;;;;;5090099;28;21023;-75
2023/05/04 14:04:45;;;;;;;5.32;2.30;;;23.70;57.10;;;;;;5088317;28;20513;-74
2023/05/04 14:07:10;;;;;;;3.97;2.00;;;23.30;58.10;;;;;;5090307;28;20396;-75
2023/05/04 14:09:36;;;;;;;5.50;2.20;;;22.90;57.40;;;;;;5088686;28;20486;-74
2023/05/04 14:12:02;;;;;;;6.10;1.85;;;22.50;58.20;;;;;;5090543;28;20426;-74
2023/05/04 14:14:28;;;;;;;6.60;2.05;;;22.10;59.30;;;;;;5072402;28;20410;-74